createdAt,value
2019-05-29T00:01:55.271Z,9.60
2019-05-29T00:04:36.272Z,9.60
2019-05-29T00:07:18.294Z,9.60
2019-05-29T00:09:59.225Z,9.60
2019-05-29T00:12:40.666Z,9.50
2019-05-29T00:15:20.534Z,9.50
2019-05-29T00:18:01.752Z,9.50
2019-05-29T00:20:43.014Z,9.50
2019-05-29T00:23:24.259Z,9.50
2019-05-29T00:26:28.167Z,9.60
2019-05-29T00:28:53.901Z,9.60
2019-05-29T00:31:34.657Z,9.60
2019-05-29T00:34:17.264Z,9.60
2019-05-29T00:36:58.651Z,9.60
2019-05-29T00:39:39.768Z,9.70
2019-05-29T00:42:20.742Z,9.70
2019-05-29T00:45:01.461Z,9.70
2019-05-29T00:47:42.292Z,9.70
2019-05-29T00:50:23.258Z,9.70
2019-05-29T00:53:03.866Z,9.70
2019-05-29T00:55:44.755Z,9.70
2019-05-29T00:58:25.342Z,9.70
2019-05-29T01:01:06.074Z,9.70
2019-05-29T01:03:47.198Z,9.70
2019-05-29T01:06:28.568Z,9.70
2019-05-29T01:09:10.359Z,9.60
2019-05-29T01:11:51.040Z,9.60
2019-05-29T01:14:32.108Z,9.60
2019-05-29T01:17:01.299Z,9.60
2019-05-29T01:19:49.688Z,9.60
2019-05-29T01:22:37.876Z,9.60
2019-05-29T01:25:22.686Z,9.60
2019-05-29T01:28:03.905Z,9.70
2019-05-29T01:30:45.010Z,9.70
2019-05-29T01:33:25.830Z,9.70
2019-05-29T01:36:06.628Z,9.70
2019-05-29T01:38:47.310Z,9.70
2019-05-29T01:41:27.757Z,9.70
2019-05-29T01:46:50.888Z,9.60
2019-05-29T01:49:31.561Z,9.60
2019-05-29T01:52:11.234Z,9.60
2019-05-29T01:57:43.567Z,9.50
2019-05-29T02:00:24.313Z,9.40
2019-05-29T02:03:05.801Z,9.40
2019-05-29T02:05:34.870Z,9.30
2019-05-29T02:08:25.409Z,9.40
2019-05-29T02:11:13.648Z,9.40
2019-05-29T02:13:54.056Z,9.40
2019-05-29T02:16:35.374Z,9.40
2019-05-29T02:19:17.774Z,9.50
2019-05-29T02:21:58.370Z,9.50
2019-05-29T02:24:42.702Z,9.50
2019-05-29T02:30:11.565Z,9.40
2019-05-29T02:35:37.906Z,9.40
2019-05-29T02:38:20.470Z,9.40
2019-05-29T02:41:01.414Z,9.40
2019-05-29T02:46:30.109Z,9.30
2019-05-29T02:49:11.409Z,9.30
2019-05-29T02:51:55.434Z,9.40
2019-05-29T02:57:24.685Z,9.40
2019-05-29T03:00:05.889Z,9.30
2019-05-29T03:02:46.613Z,9.30
2019-05-29T03:05:28.059Z,9.30
2019-05-29T03:08:08.909Z,9.20
2019-05-29T03:10:49.558Z,9.20
2019-05-29T03:13:31.597Z,9.30
2019-05-29T03:16:12.853Z,9.30
2019-05-29T03:18:53.873Z,9.40
2019-05-29T03:24:13.351Z,9.40
2019-05-29T03:26:53.846Z,9.40
2019-05-29T03:29:38.579Z,9.40
2019-05-29T03:35:07.420Z,9.40
2019-05-29T03:37:48.764Z,9.40
2019-05-29T03:40:29.459Z,9.30
2019-05-29T03:45:50.141Z,9.20
2019-05-29T03:48:32.417Z,9.20
2019-05-29T03:51:14.597Z,9.20
2019-05-29T03:53:55.227Z,9.20
2019-05-29T03:56:36.382Z,9.30
2019-05-29T03:59:17.726Z,9.30
2019-05-29T04:01:58.959Z,9.30
2019-05-29T04:04:39.757Z,9.30
2019-05-29T04:07:20.202Z,9.30
2019-05-29T04:10:01.069Z,9.30
2019-05-29T04:12:42.372Z,9.30
2019-05-29T04:15:11.442Z,9.20
2019-05-29T04:18:00.096Z,9.20
2019-05-29T04:20:48.770Z,9.20
2019-05-29T04:23:30.044Z,9.20
2019-05-29T04:26:11.389Z,9.30
2019-05-29T04:28:52.050Z,9.30
2019-05-29T04:34:16.590Z,9.30
2019-05-29T04:36:57.423Z,9.20
2019-05-29T04:39:39.096Z,9.20
2019-05-29T04:42:19.746Z,9.20
2019-05-29T04:45:01.010Z,9.10
2019-05-29T04:47:43.838Z,9.10
2019-05-29T04:50:24.919Z,9.10
2019-05-29T04:53:06.114Z,9.10
2019-05-29T04:55:46.803Z,9.10
2019-05-29T04:58:28.700Z,9.10
2019-05-29T05:01:13.498Z,9.10
2019-05-29T05:03:54.211Z,9.10
2019-05-29T05:06:35.318Z,9.20
2019-05-29T05:09:16.726Z,9.20
2019-05-29T05:11:57.152Z,9.20
2019-05-29T05:14:38.082Z,9.20
2019-05-29T05:17:26.142Z,9.20
2019-05-29T05:20:01.688Z,9.20
2019-05-29T05:22:42.521Z,9.20
2019-05-29T05:25:23.381Z,9.20
2019-05-29T05:28:04.545Z,9.20
2019-05-29T05:30:45.527Z,9.20
2019-05-29T05:33:26.323Z,9.20
2019-05-29T05:36:07.241Z,9.20
2019-05-29T05:38:48.097Z,9.10
2019-05-29T05:41:28.881Z,9.10
2019-05-29T05:44:09.592Z,9.00
2019-05-29T05:46:50.368Z,9.00
2019-05-29T05:49:31.258Z,9.00
2019-05-29T05:52:12.586Z,9.10
2019-05-29T05:54:53.812Z,9.10
2019-05-29T05:57:35.563Z,9.10
2019-05-29T06:00:16.469Z,9.10
2019-05-29T06:02:57.090Z,9.10
2019-05-29T06:05:38.229Z,9.10
2019-05-29T06:08:19.374Z,9.10
2019-05-29T06:11:00.033Z,9.20
2019-05-29T06:13:40.750Z,9.20
2019-05-29T06:16:21.853Z,9.20
2019-05-29T06:19:02.396Z,9.20
2019-05-29T06:21:43.123Z,9.20
2019-05-29T06:24:24.189Z,9.20
2019-05-29T06:27:04.960Z,9.20
2019-05-29T06:29:45.517Z,9.20
2019-05-29T06:32:26.762Z,9.20
2019-05-29T06:35:07.936Z,9.20
2019-05-29T06:37:49.958Z,9.20
2019-05-29T06:40:31.109Z,9.20
2019-05-29T06:43:12.080Z,9.20
2019-05-29T06:45:53.441Z,9.20
2019-05-29T06:48:53.589Z,9.20
2019-05-29T06:51:17.186Z,9.20
2019-05-29T06:53:58.061Z,9.30
2019-05-29T06:56:39.791Z,9.30
2019-05-29T06:59:20.598Z,9.30
2019-05-29T07:02:01.672Z,9.30
2019-05-29T07:04:42.624Z,9.30
2019-05-29T07:07:23.448Z,9.30
2019-05-29T07:10:04.393Z,9.30
2019-05-29T07:12:46.402Z,9.30
2019-05-29T07:15:27.926Z,9.40
2019-05-29T07:18:09.897Z,9.40
2019-05-29T07:20:50.943Z,9.40
2019-05-29T07:23:31.387Z,9.40
2019-05-29T07:26:11.869Z,9.50
2019-05-29T07:29:07.077Z,9.70
2019-05-29T07:31:34.636Z,9.70
2019-05-29T07:37:04.186Z,9.80
2019-05-29T07:39:45.599Z,9.80
2019-05-29T07:42:27.106Z,9.80
2019-05-29T07:45:08.347Z,9.80
2019-05-29T07:47:49.761Z,9.80
2019-05-29T07:50:30.783Z,9.80
2019-05-29T07:53:11.625Z,9.80
2019-05-29T07:55:52.094Z,9.90
2019-05-29T07:58:33.120Z,9.90
2019-05-29T08:01:14.128Z,10.00
2019-05-29T08:03:55.128Z,10.00
2019-05-29T08:06:35.570Z,10.10
2019-05-29T08:09:16.170Z,10.10
2019-05-29T08:11:57.426Z,10.10
2019-05-29T08:14:39.557Z,10.10
2019-05-29T08:17:20.761Z,10.20
2019-05-29T08:20:07.176Z,10.20
2019-05-29T08:22:44.532Z,10.30
2019-05-29T08:25:25.603Z,10.30
2019-05-29T08:28:06.097Z,10.30
2019-05-29T08:30:52.045Z,10.20
2019-05-29T08:33:29.244Z,10.20
2019-05-29T08:36:09.690Z,10.30
2019-05-29T08:38:51.744Z,10.40
2019-05-29T08:41:32.500Z,10.40
2019-05-29T08:44:13.788Z,10.40
2019-05-29T08:47:09.628Z,10.50
2019-05-29T08:49:41.684Z,10.50
2019-05-29T08:52:22.850Z,10.60
2019-05-29T08:55:03.510Z,10.70
2019-05-29T08:57:44.458Z,10.70
2019-05-29T09:00:25.007Z,10.80
2019-05-29T09:03:06.290Z,10.90
2019-05-29T09:06:04.316Z,10.90
2019-05-29T09:08:30.009Z,11.00
2019-05-29T09:11:11.281Z,11.00
2019-05-29T09:13:52.315Z,11.10
2019-05-29T09:16:33.143Z,11.20
2019-05-29T09:19:14.204Z,11.30
2019-05-29T09:21:55.265Z,11.50
2019-05-29T09:30:50.127Z,11.70
2019-05-29T09:33:31.388Z,11.60
2019-05-29T09:36:00.840Z,11.60
2019-05-29T09:38:49.064Z,11.40
2019-05-29T09:41:30.328Z,11.40
2019-05-29T09:44:26.802Z,11.20
2019-05-29T10:20:25.892Z,11.40
2019-05-29T10:31:46.771Z,11.50
2019-05-29T10:34:27.634Z,11.60
2019-05-29T10:37:08.351Z,11.70
2019-05-29T10:39:50.543Z,11.60
2019-05-29T10:42:32.304Z,11.80
2019-05-29T10:45:13.688Z,12.00
2019-05-29T10:47:54.214Z,12.10
2019-05-29T10:50:35.709Z,12.20
2019-05-29T10:53:16.839Z,12.20
2019-05-29T10:55:57.507Z,12.10
2019-05-29T10:58:48.628Z,12.20
2019-05-29T11:01:20.991Z,12.20
2019-05-29T11:04:01.783Z,12.30
2019-05-29T11:06:42.725Z,12.40
2019-05-29T11:09:23.453Z,12.40
2019-05-29T11:12:04.297Z,12.40
2019-05-29T11:14:46.478Z,12.60
2019-05-29T11:17:27.335Z,12.80
2019-05-29T11:20:08.091Z,12.80
2019-05-29T11:22:49.566Z,13.00
2019-05-29T11:25:30.961Z,13.10
2019-05-29T11:28:11.916Z,13.20
2019-05-29T11:30:53.811Z,13.20
2019-05-29T11:33:35.889Z,13.30
2019-05-29T11:36:16.495Z,13.30
2019-05-29T11:39:02.900Z,13.20
2019-05-29T11:41:39.625Z,13.20
2019-05-29T11:44:20.549Z,13.10
2019-05-29T11:47:02.401Z,13.10
2019-05-29T11:49:43.937Z,13.00
2019-05-29T11:52:26.542Z,12.90
2019-05-29T11:55:08.120Z,12.80
2019-05-29T11:57:49.097Z,12.60
2019-05-29T12:00:29.893Z,12.50
2019-05-29T12:03:10.480Z,12.30
2019-05-29T12:05:51.442Z,12.30
2019-05-29T12:08:32.370Z,12.30
2019-05-29T12:11:13.330Z,12.40
2019-05-29T12:13:54.224Z,12.60
2019-05-29T12:16:35.690Z,12.70
2019-05-29T12:19:16.436Z,12.60
2019-05-29T12:21:58.337Z,12.80
2019-05-29T12:24:39.069Z,12.90
2019-05-29T12:27:19.936Z,13.00
2019-05-29T12:30:00.901Z,13.10
2019-05-29T12:32:41.284Z,13.20
2019-05-29T12:35:21.989Z,13.20
2019-05-29T12:38:03.576Z,13.10
2019-05-29T12:40:44.743Z,13.20
2019-05-29T12:43:27.626Z,13.10
2019-05-29T12:46:08.625Z,13.20
2019-05-29T12:48:53.395Z,13.20
2019-05-29T12:51:34.637Z,13.20
2019-05-29T12:54:15.509Z,13.40
2019-05-29T12:56:57.851Z,13.60
2019-05-29T12:59:42.852Z,13.70
2019-05-29T13:02:23.576Z,14.00
2019-05-29T13:05:13.827Z,14.60
2019-05-29T13:07:47.602Z,14.80
2019-05-29T13:10:31.095Z,15.00
2019-05-29T13:13:11.612Z,15.00
2019-05-29T13:15:52.277Z,14.80
2019-05-29T13:18:38.175Z,14.50
2019-05-29T13:21:18.843Z,14.10
2019-05-29T13:24:02.285Z,14.00
2019-05-29T13:26:42.454Z,14.00
2019-05-29T13:29:23.281Z,14.10
2019-05-29T13:32:05.442Z,14.20
2019-05-29T13:34:46.841Z,14.20
2019-05-29T13:37:27.265Z,14.20
2019-05-29T13:40:08.694Z,14.20
2019-05-29T13:42:49.193Z,14.10
2019-05-29T13:45:30.129Z,14.10
2019-05-29T13:48:10.549Z,14.20
2019-05-29T13:50:51.878Z,14.30
2019-05-29T13:53:32.471Z,14.10
2019-05-29T13:56:13.849Z,13.90
2019-05-29T13:58:54.618Z,13.80
2019-05-29T14:01:35.420Z,13.90
2019-05-29T14:04:16.288Z,13.90
2019-05-29T14:06:58.469Z,13.90
2019-05-29T14:09:39.251Z,13.90
2019-05-29T14:12:20.426Z,14.00
2019-05-29T14:15:02.208Z,13.90
2019-05-29T14:17:43.555Z,13.90
2019-05-29T14:20:13.090Z,13.90
2019-05-29T14:23:03.362Z,13.70
2019-05-29T14:25:45.257Z,13.50
2019-05-29T14:28:26.099Z,13.30
2019-05-29T14:31:08.372Z,13.20
2019-05-29T14:33:49.789Z,13.20
2019-05-29T14:36:30.318Z,13.10
2019-05-29T14:39:12.024Z,12.90
2019-05-29T14:41:52.783Z,12.80
2019-05-29T14:44:33.306Z,12.80
2019-05-29T14:47:13.994Z,12.70
2019-05-29T14:49:54.913Z,12.70
2019-05-29T14:52:35.505Z,12.70
2019-05-29T14:55:18.340Z,12.80
2019-05-29T14:57:59.205Z,12.80
2019-05-29T15:00:40.138Z,12.80
2019-05-29T15:03:20.970Z,12.80
2019-05-29T15:06:01.367Z,12.80
2019-05-29T15:08:42.352Z,12.90
2019-05-29T15:11:23.289Z,12.90
2019-05-29T15:14:04.026Z,13.00
2019-05-29T15:16:45.133Z,13.00
2019-05-29T15:19:26.166Z,13.00
2019-05-29T15:22:09.290Z,12.90
2019-05-29T15:25:04.470Z,12.80
2019-05-29T15:27:32.660Z,12.80
2019-05-29T15:30:18.696Z,12.70
2019-05-29T15:32:56.483Z,12.70
2019-05-29T15:35:37.228Z,12.60
2019-05-29T15:38:18.154Z,12.60
2019-05-29T15:40:59.050Z,12.60
2019-05-29T15:43:40.048Z,12.60
2019-05-29T15:46:20.925Z,12.60
2019-05-29T15:49:01.865Z,12.70
2019-05-29T15:51:42.816Z,12.70
2019-05-29T15:54:23.746Z,12.60
2019-05-29T15:57:04.433Z,12.50
2019-05-29T15:59:45.225Z,12.40
2019-05-29T16:02:31.955Z,12.40
2019-05-29T16:05:13.359Z,12.50
2019-05-29T16:07:54.327Z,12.50
2019-05-29T16:10:35.141Z,12.40
2019-05-29T16:13:17.305Z,12.40
2019-05-29T16:15:57.893Z,12.30
2019-05-29T16:18:39.044Z,12.30
2019-05-29T16:21:20.119Z,12.20
2019-05-29T16:24:01.181Z,12.10
2019-05-29T16:26:41.863Z,12.10
2019-05-29T16:29:23.061Z,12.00
2019-05-29T16:32:03.739Z,12.00
2019-05-29T16:34:45.290Z,12.00
2019-05-29T16:37:25.985Z,12.00
2019-05-29T16:40:07.229Z,12.00
2019-05-29T16:42:47.957Z,12.10
2019-05-29T16:45:28.926Z,12.20
2019-05-29T16:48:09.845Z,12.20
2019-05-29T16:50:50.675Z,12.20
2019-05-29T16:53:31.782Z,12.20
2019-05-29T16:56:12.856Z,12.20
2019-05-29T16:58:53.554Z,12.20
2019-05-29T17:01:34.399Z,12.20
2019-05-29T17:04:15.544Z,12.10
2019-05-29T17:06:56.849Z,12.10
2019-05-29T17:09:37.973Z,12.00
2019-05-29T17:12:18.949Z,12.00
2019-05-29T17:14:59.567Z,12.00
2019-05-29T17:17:40.438Z,12.00
2019-05-29T17:20:21.217Z,12.00
2019-05-29T17:23:02.189Z,11.90
2019-05-29T17:25:42.858Z,11.90
2019-05-29T17:28:27.611Z,12.00
2019-05-29T17:34:06.913Z,11.90
2019-05-29T17:42:46.954Z,11.80
2019-05-29T17:45:28.478Z,11.80
2019-05-29T17:51:05.903Z,11.70
2019-05-29T17:53:47.571Z,11.70
2019-05-29T18:53:04.020Z,11.40
2019-05-29T18:55:45.016Z,11.40
2019-05-29T18:58:26.021Z,11.40
2019-05-29T19:01:07.419Z,11.40
2019-05-29T19:06:47.234Z,11.20
2019-05-29T19:09:27.933Z,11.20
2019-05-29T19:12:08.721Z,11.10
2019-05-29T19:14:49.582Z,11.10
2019-05-29T19:17:30.209Z,11.10
2019-05-29T19:20:10.915Z,11.00
2019-05-29T19:22:51.809Z,11.00
2019-05-29T19:25:33.158Z,11.00
2019-05-29T19:28:14.962Z,10.90
2019-05-29T19:36:17.956Z,11.00
2019-05-29T19:38:46.904Z,10.90
2019-05-29T19:41:35.085Z,10.80
2019-05-29T19:44:16.346Z,10.80
2019-05-29T19:47:03.358Z,10.80
2019-05-29T19:49:33.136Z,10.80
2019-05-29T19:52:21.294Z,10.70
2019-05-29T19:55:02.504Z,10.70
2019-05-29T19:57:55.726Z,10.70
2019-05-29T20:00:26.542Z,10.80
2019-05-29T20:03:07.509Z,10.90
2019-05-29T20:05:37.004Z,10.90
2019-05-29T20:08:25.302Z,10.90
2019-05-29T20:11:13.523Z,10.80
2019-05-29T20:13:54.347Z,10.80
2019-05-29T20:16:36.210Z,10.80
2019-05-29T20:19:17.269Z,10.70
2019-05-29T20:21:58.496Z,10.70
2019-05-29T20:24:28.660Z,10.70
2019-05-29T20:27:17.345Z,10.70
2019-05-29T20:29:58.653Z,10.70
2019-05-29T20:32:27.783Z,10.80
2019-05-29T20:34:56.777Z,10.80
2019-05-29T20:37:45.047Z,10.80
2019-05-29T20:43:26.990Z,10.90
2019-05-29T20:46:07.505Z,10.80
2019-05-29T20:48:48.218Z,10.80
2019-05-29T20:51:29.799Z,10.70
2019-05-29T20:54:11.243Z,10.70
2019-05-29T20:56:51.980Z,10.60
2019-05-29T20:59:33.708Z,10.60
2019-05-29T21:04:59.403Z,10.60
2019-05-29T21:07:28.447Z,10.50
2019-05-29T21:10:16.892Z,10.50
2019-05-29T21:13:01.223Z,10.50
2019-05-29T21:18:26.845Z,10.60
2019-05-29T21:21:08.036Z,10.60
2019-05-29T21:23:49.162Z,10.50
2019-05-29T21:26:29.849Z,10.50
2019-05-29T21:29:11.808Z,10.50
2019-05-29T21:31:52.915Z,10.50
2019-05-29T21:34:33.543Z,10.40
2019-05-29T21:37:14.851Z,10.40
2019-05-29T21:39:55.569Z,10.40
2019-05-29T21:45:30.605Z,10.30
2019-05-29T21:47:59.746Z,10.40
2019-05-29T21:50:47.996Z,10.30
2019-05-29T21:53:37.227Z,10.30
2019-05-29T21:56:19.512Z,10.30
2019-05-29T21:59:04.146Z,10.30
2019-05-29T22:01:46.391Z,10.30
2019-05-29T22:04:27.431Z,10.20
2019-05-29T22:07:08.420Z,10.20
2019-05-29T22:09:52.327Z,10.20
2019-05-29T22:12:35.795Z,10.20
2019-05-29T22:15:16.457Z,10.20
2019-05-29T22:17:59.066Z,10.20
2019-05-29T22:20:39.614Z,10.20
2019-05-29T22:23:23.528Z,10.20
2019-05-29T22:26:04.159Z,10.10
2019-05-29T22:28:45.200Z,10.10
2019-05-29T22:31:25.735Z,10.10
2019-05-29T22:34:09.646Z,10.20
2019-05-29T22:36:51.417Z,10.20
2019-05-29T22:39:32.673Z,10.20
2019-05-29T22:42:14.249Z,10.20
2019-05-29T22:44:55.654Z,10.20
2019-05-29T22:47:37.191Z,10.10
2019-05-29T22:50:18.501Z,10.10
2019-05-29T22:52:59.962Z,10.20
2019-05-29T22:55:40.879Z,10.20
2019-05-29T22:58:21.645Z,10.20
2019-05-29T23:01:03.357Z,10.20
2019-05-29T23:03:44.302Z,10.10
2019-05-29T23:06:24.965Z,10.10
2019-05-29T23:09:05.987Z,10.10
2019-05-29T23:11:47.048Z,10.20
2019-05-29T23:14:28.322Z,10.20
2019-05-29T23:17:12.798Z,10.20
2019-05-29T23:19:54.574Z,10.20
2019-05-29T23:22:35.669Z,10.20
2019-05-29T23:25:16.959Z,10.20
2019-05-29T23:27:57.431Z,10.10
2019-05-29T23:30:38.092Z,10.10
2019-05-29T23:33:19.072Z,10.10
2019-05-29T23:35:59.625Z,10.00
2019-05-29T23:38:40.225Z,10.10
2019-05-29T23:41:20.942Z,10.10
2019-05-29T23:44:01.539Z,10.00
2019-05-29T23:46:49.788Z,10.00
2019-05-29T23:49:30.598Z,10.00
2019-05-29T23:52:11.517Z,10.00
2019-05-29T23:54:55.689Z,9.90
2019-05-29T23:57:36.842Z,9.90
